sensor_id;sensor_type;location;lat;lon;timestamp;P1;durP1;ratioP1;P2;durP2;ratioP2
34924;SDS011;21130;51.728;8.748;2023-04-07T00:01:34;9.65;;;8.65;;
34924;SDS011;21130;51.728;8.748;2023-04-07T00:04:01;10.70;;;9.60;;
34924;SDS011;21130;51.728;8.748;2023-04-07T00:06:27;9.52;;;8.60;;
34924;SDS011;21130;51.728;8.748;2023-04-07T00:08:54;10.18;;;8.38;;
34924;SDS011;21130;51.728;8.748;2023-04-07T00:14:16;9.63;;;8.63;;
34924;SDS011;21130;51.728;8.748;2023-04-07T00:16:43;10.00;;;9.00;;
34924;SDS011;21130;51.728;8.748;2023-04-07T00:19:10;10.57;;;9.45;;
34924;SDS011;21130;51.728;8.748;2023-04-07T00:21:36;10.05;;;9.07;;
34924;SDS011;21130;51.728;8.748;2023-04-07T00:24:03;10.98;;;9.15;;
34924;SDS011;21130;51.728;8.748;2023-04-07T00:26:30;10.20;;;8.93;;
34924;SDS011;21130;51.728;8.748;2023-04-07T00:28:57;11.80;;;8.77;;
34924;SDS011;21130;51.728;8.748;2023-04-07T00:31:24;10.00;;;9.00;;
34924;SDS011;21130;51.728;8.748;2023-04-07T00:33:51;10.23;;;9.20;;
34924;SDS011;21130;51.728;8.748;2023-04-07T00:36:17;9.38;;;8.38;;
34924;SDS011;21130;51.728;8.748;2023-04-07T00:41:19;12.32;;;9.40;;
34924;SDS011;21130;51.728;8.748;2023-04-07T00:43:45;10.02;;;9.07;;
34924;SDS011;21130;51.728;8.748;2023-04-07T00:51:25;10.32;;;9.23;;
34924;SDS011;21130;51.728;8.748;2023-04-07T00:53:52;8.98;;;8.07;;
34924;SDS011;21130;51.728;8.748;2023-04-07T00:56:20;10.15;;;9.10;;
34924;SDS011;21130;51.728;8.748;2023-04-07T00:58:46;9.52;;;8.57;;
34924;SDS011;21130;51.728;8.748;2023-04-07T01:01:14;10.45;;;9.40;;
34924;SDS011;21130;51.728;8.748;2023-04-07T01:05:36;9.30;;;8.38;;
34924;SDS011;21130;51.728;8.748;2023-04-07T01:08:07;9.82;;;8.80;;
34924;SDS011;21130;51.728;8.748;2023-04-07T01:10:40;11.88;;;9.55;;
34924;SDS011;21130;51.728;8.748;2023-04-07T01:13:15;10.40;;;9.30;;
34924;SDS011;21130;51.728;8.748;2023-04-07T01:15:48;10.57;;;9.55;;
34924;SDS011;21130;51.728;8.748;2023-04-07T01:18:21;10.57;;;9.48;;
34924;SDS011;21130;51.728;8.748;2023-04-07T01:20:52;11.98;;;9.77;;
34924;SDS011;21130;51.728;8.748;2023-04-07T01:23:31;10.55;;;9.48;;
34924;SDS011;21130;51.728;8.748;2023-04-07T01:26:12;11.70;;;10.50;;
34924;SDS011;21130;51.728;8.748;2023-04-07T01:28:48;10.55;;;9.45;;
34924;SDS011;21130;51.728;8.748;2023-04-07T01:31:24;10.30;;;9.30;;
34924;SDS011;21130;51.728;8.748;2023-04-07T01:33:51;11.85;;;9.98;;
34924;SDS011;21130;51.728;8.748;2023-04-07T01:36:20;11.05;;;9.95;;
34924;SDS011;21130;51.728;8.748;2023-04-07T01:38:47;11.00;;;9.73;;
34924;SDS011;21130;51.728;8.748;2023-04-07T01:41:15;10.82;;;9.73;;
34924;SDS011;21130;51.728;8.748;2023-04-07T01:43:44;11.43;;;10.32;;
34924;SDS011;21130;51.728;8.748;2023-04-07T01:46:12;10.88;;;9.77;;
34924;SDS011;21130;51.728;8.748;2023-04-07T01:48:40;10.90;;;9.80;;
34924;SDS011;21130;51.728;8.748;2023-04-07T01:51:07;11.10;;;9.40;;
34924;SDS011;21130;51.728;8.748;2023-04-07T01:53:41;10.38;;;9.27;;
34924;SDS011;21130;51.728;8.748;2023-04-07T01:56:08;9.63;;;8.73;;
34924;SDS011;21130;51.728;8.748;2023-04-07T01:58:34;10.93;;;9.82;;
34924;SDS011;21130;51.728;8.748;2023-04-07T02:01:01;12.30;;;9.43;;
34924;SDS011;21130;51.728;8.748;2023-04-07T02:03:29;11.02;;;9.93;;
34924;SDS011;21130;51.728;8.748;2023-04-07T02:06:02;11.57;;;10.38;;
34924;SDS011;21130;51.728;8.748;2023-04-07T02:08:32;11.52;;;10.40;;
34924;SDS011;21130;51.728;8.748;2023-04-07T02:11:01;11.48;;;10.27;;
34924;SDS011;21130;51.728;8.748;2023-04-07T02:13:29;10.95;;;9.85;;
34924;SDS011;21130;51.728;8.748;2023-04-07T02:15:58;11.73;;;10.52;;
34924;SDS011;21130;51.728;8.748;2023-04-07T02:18:25;11.30;;;10.20;;
34924;SDS011;21130;51.728;8.748;2023-04-07T02:20:53;11.45;;;10.25;;
34924;SDS011;21130;51.728;8.748;2023-04-07T02:23:25;11.75;;;10.55;;
34924;SDS011;21130;51.728;8.748;2023-04-07T02:25:54;11.60;;;10.40;;
34924;SDS011;21130;51.728;8.748;2023-04-07T02:28:21;12.98;;;10.75;;
34924;SDS011;21130;51.728;8.748;2023-04-07T02:30:48;13.32;;;10.40;;
34924;SDS011;21130;51.728;8.748;2023-04-07T02:33:15;12.10;;;10.80;;
34924;SDS011;21130;51.728;8.748;2023-04-07T02:35:42;12.45;;;11.15;;
34924;SDS011;21130;51.728;8.748;2023-04-07T02:38:08;13.80;;;11.15;;
34924;SDS011;21130;51.728;8.748;2023-04-07T02:40:37;11.90;;;10.60;;
34924;SDS011;21130;51.728;8.748;2023-04-07T02:43:03;12.20;;;10.90;;
34924;SDS011;21130;51.728;8.748;2023-04-07T02:45:30;13.18;;;11.60;;
34924;SDS011;21130;51.728;8.748;2023-04-07T02:47:56;12.38;;;11.07;;
34924;SDS011;21130;51.728;8.748;2023-04-07T02:50:23;14.40;;;11.43;;
34924;SDS011;21130;51.728;8.748;2023-04-07T02:52:50;13.18;;;11.15;;
34924;SDS011;21130;51.728;8.748;2023-04-07T02:55:17;14.50;;;12.30;;
34924;SDS011;21130;51.728;8.748;2023-04-07T02:57:44;14.43;;;12.93;;
34924;SDS011;21130;51.728;8.748;2023-04-07T03:00:11;13.70;;;12.30;;
34924;SDS011;21130;51.728;8.748;2023-04-07T03:02:39;14.65;;;13.07;;
34924;SDS011;21130;51.728;8.748;2023-04-07T03:05:06;15.35;;;13.18;;
34924;SDS011;21130;51.728;8.748;2023-04-07T03:07:33;14.35;;;12.52;;
34924;SDS011;21130;51.728;8.748;2023-04-07T03:10:00;16.83;;;13.05;;
34924;SDS011;21130;51.728;8.748;2023-04-07T03:12:26;14.88;;;12.90;;
34924;SDS011;21130;51.728;8.748;2023-04-07T03:14:54;14.80;;;13.13;;
34924;SDS011;21130;51.728;8.748;2023-04-07T03:17:21;15.18;;;13.15;;
34924;SDS011;21130;51.728;8.748;2023-04-07T03:19:48;14.65;;;12.90;;
34924;SDS011;21130;51.728;8.748;2023-04-07T03:22:15;16.70;;;13.57;;
34924;SDS011;21130;51.728;8.748;2023-04-07T03:24:42;14.15;;;12.55;;
34924;SDS011;21130;51.728;8.748;2023-04-07T03:27:09;13.75;;;12.35;;
34924;SDS011;21130;51.728;8.748;2023-04-07T03:29:35;13.70;;;12.13;;
34924;SDS011;21130;51.728;8.748;2023-04-07T03:32:03;15.57;;;12.45;;
34924;SDS011;21130;51.728;8.748;2023-04-07T03:34:30;14.52;;;12.55;;
34924;SDS011;21130;51.728;8.748;2023-04-07T03:36:56;15.07;;;12.98;;
34924;SDS011;21130;51.728;8.748;2023-04-07T03:39:23;15.43;;;12.80;;
34924;SDS011;21130;51.728;8.748;2023-04-07T03:41:49;15.95;;;12.27;;
34924;SDS011;21130;51.728;8.748;2023-04-07T03:44:16;14.38;;;12.85;;
34924;SDS011;21130;51.728;8.748;2023-04-07T03:46:45;13.63;;;11.77;;
34924;SDS011;21130;51.728;8.748;2023-04-07T03:49:15;13.82;;;12.32;;
34924;SDS011;21130;51.728;8.748;2023-04-07T03:51:42;13.82;;;12.07;;
34924;SDS011;21130;51.728;8.748;2023-04-07T03:54:08;14.65;;;12.70;;
34924;SDS011;21130;51.728;8.748;2023-04-07T03:56:35;14.75;;;12.77;;
34924;SDS011;21130;51.728;8.748;2023-04-07T03:59:02;14.65;;;12.88;;
34924;SDS011;21130;51.728;8.748;2023-04-07T04:01:28;15.02;;;12.85;;
34924;SDS011;21130;51.728;8.748;2023-04-07T04:03:55;14.65;;;12.48;;
34924;SDS011;21130;51.728;8.748;2023-04-07T04:06:23;14.90;;;12.93;;
34924;SDS011;21130;51.728;8.748;2023-04-07T04:08:51;14.80;;;12.82;;
34924;SDS011;21130;51.728;8.748;2023-04-07T04:11:17;17.25;;;13.43;;
34924;SDS011;21130;51.728;8.748;2023-04-07T04:13:47;16.08;;;13.27;;
34924;SDS011;21130;51.728;8.748;2023-04-07T04:16:13;15.63;;;13.38;;
34924;SDS011;21130;51.728;8.748;2023-04-07T04:18:40;16.88;;;14.07;;
34924;SDS011;21130;51.728;8.748;2023-04-07T04:21:06;15.27;;;13.68;;
34924;SDS011;21130;51.728;8.748;2023-04-07T04:23:34;15.93;;;13.38;;
34924;SDS011;21130;51.728;8.748;2023-04-07T04:26:01;18.17;;;14.48;;
34924;SDS011;21130;51.728;8.748;2023-04-07T04:28:28;19.63;;;14.50;;
34924;SDS011;21130;51.728;8.748;2023-04-07T04:30:54;17.08;;;14.55;;
34924;SDS011;21130;51.728;8.748;2023-04-07T04:33:21;16.75;;;14.75;;
34924;SDS011;21130;51.728;8.748;2023-04-07T04:35:47;16.75;;;14.32;;
34924;SDS011;21130;51.728;8.748;2023-04-07T04:38:14;16.48;;;13.85;;
34924;SDS011;21130;51.728;8.748;2023-04-07T04:40:42;17.95;;;14.98;;
34924;SDS011;21130;51.728;8.748;2023-04-07T04:43:09;17.35;;;14.63;;
34924;SDS011;21130;51.728;8.748;2023-04-07T04:45:35;18.00;;;15.02;;
34924;SDS011;21130;51.728;8.748;2023-04-07T04:48:01;18.25;;;15.18;;
34924;SDS011;21130;51.728;8.748;2023-04-07T04:50:28;17.10;;;15.05;;
34924;SDS011;21130;51.728;8.748;2023-04-07T04:52:54;19.00;;;15.20;;
34924;SDS011;21130;51.728;8.748;2023-04-07T04:55:21;18.35;;;15.40;;
34924;SDS011;21130;51.728;8.748;2023-04-07T04:57:49;17.52;;;15.30;;
34924;SDS011;21130;51.728;8.748;2023-04-07T05:00:15;17.27;;;14.52;;
34924;SDS011;21130;51.728;8.748;2023-04-07T05:02:42;18.60;;;15.00;;
34924;SDS011;21130;51.728;8.748;2023-04-07T05:05:10;17.60;;;14.13;;
34924;SDS011;21130;51.728;8.748;2023-04-07T05:07:37;17.35;;;15.40;;
34924;SDS011;21130;51.728;8.748;2023-04-07T05:10:05;19.30;;;15.43;;
34924;SDS011;21130;51.728;8.748;2023-04-07T05:12:35;17.55;;;14.63;;
34924;SDS011;21130;51.728;8.748;2023-04-07T05:15:05;18.35;;;14.75;;
34924;SDS011;21130;51.728;8.748;2023-04-07T05:17:33;17.88;;;15.70;;
34924;SDS011;21130;51.728;8.748;2023-04-07T05:19:59;16.52;;;13.88;;
34924;SDS011;21130;51.728;8.748;2023-04-07T05:22:26;16.58;;;14.75;;
34924;SDS011;21130;51.728;8.748;2023-04-07T05:24:52;17.05;;;14.02;;
34924;SDS011;21130;51.728;8.748;2023-04-07T05:27:19;18.52;;;15.48;;
34924;SDS011;21130;51.728;8.748;2023-04-07T05:29:45;17.85;;;14.75;;
34924;SDS011;21130;51.728;8.748;2023-04-07T05:32:13;18.35;;;15.18;;
34924;SDS011;21130;51.728;8.748;2023-04-07T05:34:41;17.33;;;14.38;;
34924;SDS011;21130;51.728;8.748;2023-04-07T05:37:07;15.88;;;14.18;;
34924;SDS011;21130;51.728;8.748;2023-04-07T05:39:34;16.83;;;14.48;;
34924;SDS011;21130;51.728;8.748;2023-04-07T05:42:00;17.27;;;14.20;;
34924;SDS011;21130;51.728;8.748;2023-04-07T05:44:27;16.38;;;13.52;;
34924;SDS011;21130;51.728;8.748;2023-04-07T05:46:54;15.25;;;13.60;;
34924;SDS011;21130;51.728;8.748;2023-04-07T05:49:22;15.25;;;13.65;;
34924;SDS011;21130;51.728;8.748;2023-04-07T05:51:48;15.88;;;13.98;;
34924;SDS011;21130;51.728;8.748;2023-04-07T05:54:15;16.20;;;13.82;;
34924;SDS011;21130;51.728;8.748;2023-04-07T05:56:41;15.25;;;13.65;;
34924;SDS011;21130;51.728;8.748;2023-04-07T05:59:08;17.48;;;14.80;;
34924;SDS011;21130;51.728;8.748;2023-04-07T06:01:37;16.40;;;14.32;;
34924;SDS011;21130;51.728;8.748;2023-04-07T06:04:04;16.20;;;14.48;;
34924;SDS011;21130;51.728;8.748;2023-04-07T06:06:32;16.35;;;14.32;;
34924;SDS011;21130;51.728;8.748;2023-04-07T06:08:58;16.52;;;14.65;;
34924;SDS011;21130;51.728;8.748;2023-04-07T06:11:25;16.00;;;13.63;;
34924;SDS011;21130;51.728;8.748;2023-04-07T06:13:52;16.52;;;14.00;;
34924;SDS011;21130;51.728;8.748;2023-04-07T06:16:19;17.73;;;13.80;;
34924;SDS011;21130;51.728;8.748;2023-04-07T06:18:45;14.43;;;12.20;;
34924;SDS011;21130;51.728;8.748;2023-04-07T06:21:11;14.95;;;12.50;;
34924;SDS011;21130;51.728;8.748;2023-04-07T06:23:39;13.13;;;11.73;;
34924;SDS011;21130;51.728;8.748;2023-04-07T06:26:08;13.77;;;11.88;;
34924;SDS011;21130;51.728;8.748;2023-04-07T06:28:35;14.35;;;12.50;;
34924;SDS011;21130;51.728;8.748;2023-04-07T06:31:02;13.73;;;11.38;;
34924;SDS011;21130;51.728;8.748;2023-04-07T06:33:29;12.63;;;10.88;;
34924;SDS011;21130;51.728;8.748;2023-04-07T06:35:55;12.43;;;10.85;;
34924;SDS011;21130;51.728;8.748;2023-04-07T06:38:22;13.05;;;10.82;;
34924;SDS011;21130;51.728;8.748;2023-04-07T06:40:50;10.88;;;9.70;;
34924;SDS011;21130;51.728;8.748;2023-04-07T06:43:17;10.93;;;9.82;;
34924;SDS011;21130;51.728;8.748;2023-04-07T06:45:43;10.60;;;9.50;;
34924;SDS011;21130;51.728;8.748;2023-04-07T06:48:09;11.25;;;9.13;;
34924;SDS011;21130;51.728;8.748;2023-04-07T06:50:36;8.98;;;8.07;;
34924;SDS011;21130;51.728;8.748;2023-04-07T06:53:03;9.90;;;8.63;;
34924;SDS011;21130;51.728;8.748;2023-04-07T06:55:29;10.13;;;8.35;;
34924;SDS011;21130;51.728;8.748;2023-04-07T06:57:57;8.73;;;7.30;;
34924;SDS011;21130;51.728;8.748;2023-04-07T07:00:24;8.57;;;7.68;;
34924;SDS011;21130;51.728;8.748;2023-04-07T07:02:53;9.10;;;8.20;;
34924;SDS011;21130;51.728;8.748;2023-04-07T07:05:19;8.40;;;7.60;;
34924;SDS011;21130;51.728;8.748;2023-04-07T07:07:47;8.95;;;8.05;;
34924;SDS011;21130;51.728;8.748;2023-04-07T07:10:13;8.52;;;7.55;;
34924;SDS011;21130;51.728;8.748;2023-04-07T07:12:41;8.20;;;7.40;;
34924;SDS011;21130;51.728;8.748;2023-04-07T07:15:09;8.18;;;7.38;;
34924;SDS011;21130;51.728;8.748;2023-04-07T07:17:36;7.03;;;6.32;;
34924;SDS011;21130;51.728;8.748;2023-04-07T07:20:03;7.80;;;7.03;;
34924;SDS011;21130;51.728;8.748;2023-04-07T07:22:30;7.53;;;6.78;;
34924;SDS011;21130;51.728;8.748;2023-04-07T07:24:56;8.35;;;7.55;;
34924;SDS011;21130;51.728;8.748;2023-04-07T07:27:23;7.57;;;6.80;;
34924;SDS011;21130;51.728;8.748;2023-04-07T07:29:49;7.07;;;6.38;;
34924;SDS011;21130;51.728;8.748;2023-04-07T07:32:17;7.65;;;6.85;;
34924;SDS011;21130;51.728;8.748;2023-04-07T07:34:44;9.23;;;6.90;;
34924;SDS011;21130;51.728;8.748;2023-04-07T07:37:10;7.28;;;6.57;;
34924;SDS011;21130;51.728;8.748;2023-04-07T07:39:37;7.68;;;6.88;;
34924;SDS011;21130;51.728;8.748;2023-04-07T07:42:04;7.85;;;6.70;;
34924;SDS011;21130;51.728;8.748;2023-04-07T07:44:30;8.23;;;7.43;;
34924;SDS011;21130;51.728;8.748;2023-04-07T07:46:56;8.30;;;7.47;;
34924;SDS011;21130;51.728;8.748;2023-04-07T07:49:24;8.18;;;7.03;;
34924;SDS011;21130;51.728;8.748;2023-04-07T07:51:51;8.32;;;7.43;;
34924;SDS011;21130;51.728;8.748;2023-04-07T07:54:18;8.05;;;7.30;;
34924;SDS011;21130;51.728;8.748;2023-04-07T07:56:45;8.13;;;7.32;;
34924;SDS011;21130;51.728;8.748;2023-04-07T07:59:11;7.47;;;6.82;;
34924;SDS011;21130;51.728;8.748;2023-04-07T08:01:38;7.65;;;6.78;;
34924;SDS011;21130;51.728;8.748;2023-04-07T08:04:04;6.80;;;6.20;;
34924;SDS011;21130;51.728;8.748;2023-04-07T08:06:32;6.90;;;6.30;;
34924;SDS011;21130;51.728;8.748;2023-04-07T08:08:58;7.68;;;6.88;;
34924;SDS011;21130;51.728;8.748;2023-04-07T08:11:25;6.97;;;6.38;;
34924;SDS011;21130;51.728;8.748;2023-04-07T08:13:51;6.90;;;6.30;;
34924;SDS011;21130;51.728;8.748;2023-04-07T08:16:18;7.22;;;6.60;;
34924;SDS011;21130;51.728;8.748;2023-04-07T08:18:46;6.63;;;5.93;;
34924;SDS011;21130;51.728;8.748;2023-04-07T08:21:12;5.97;;;5.38;;
34924;SDS011;21130;51.728;8.748;2023-04-07T08:23:41;6.32;;;5.72;;
34924;SDS011;21130;51.728;8.748;2023-04-07T08:26:07;7.20;;;6.55;;
34924;SDS011;21130;51.728;8.748;2023-04-07T08:28:34;6.95;;;6.25;;
34924;SDS011;21130;51.728;8.748;2023-04-07T08:31:01;6.68;;;5.97;;
34924;SDS011;21130;51.728;8.748;2023-04-07T08:33:27;7.10;;;6.40;;
34924;SDS011;21130;51.728;8.748;2023-04-07T08:35:54;6.35;;;5.75;;
34924;SDS011;21130;51.728;8.748;2023-04-07T08:38:22;7.18;;;6.47;;
34924;SDS011;21130;51.728;8.748;2023-04-07T08:40:52;6.57;;;5.97;;
34924;SDS011;21130;51.728;8.748;2023-04-07T08:43:23;6.35;;;5.75;;
34924;SDS011;21130;51.728;8.748;2023-04-07T08:45:52;6.20;;;5.60;;
34924;SDS011;21130;51.728;8.748;2023-04-07T08:48:22;5.57;;;5.07;;
34924;SDS011;21130;51.728;8.748;2023-04-07T08:50:50;5.20;;;4.70;;
34924;SDS011;21130;51.728;8.748;2023-04-07T08:53:21;5.03;;;4.45;;
34924;SDS011;21130;51.728;8.748;2023-04-07T08:55:53;4.72;;;4.32;;
34924;SDS011;21130;51.728;8.748;2023-04-07T08:58:21;4.55;;;4.15;;
34924;SDS011;21130;51.728;8.748;2023-04-07T09:00:48;4.78;;;4.38;;
34924;SDS011;21130;51.728;8.748;2023-04-07T09:03:15;4.18;;;3.78;;
34924;SDS011;21130;51.728;8.748;2023-04-07T09:05:43;4.43;;;4.03;;
34924;SDS011;21130;51.728;8.748;2023-04-07T09:08:10;3.95;;;3.65;;
34924;SDS011;21130;51.728;8.748;2023-04-07T09:10:37;3.78;;;3.45;;
34924;SDS011;21130;51.728;8.748;2023-04-07T09:13:05;4.30;;;3.90;;
34924;SDS011;21130;51.728;8.748;2023-04-07T09:15:32;4.22;;;3.83;;
34924;SDS011;21130;51.728;8.748;2023-04-07T09:17:58;3.97;;;3.60;;
34924;SDS011;21130;51.728;8.748;2023-04-07T09:20:25;4.57;;;4.18;;
34924;SDS011;21130;51.728;8.748;2023-04-07T09:22:52;3.95;;;3.55;;
34924;SDS011;21130;51.728;8.748;2023-04-07T09:25:19;5.00;;;4.50;;
34924;SDS011;21130;51.728;8.748;2023-04-07T09:27:54;3.88;;;3.55;;
34924;SDS011;21130;51.728;8.748;2023-04-07T09:30:23;4.13;;;3.72;;
34924;SDS011;21130;51.728;8.748;2023-04-07T09:32:50;4.20;;;3.80;;
34924;SDS011;21130;51.728;8.748;2023-04-07T09:35:17;4.75;;;4.00;;
34924;SDS011;21130;51.728;8.748;2023-04-07T09:37:44;5.00;;;4.50;;
34924;SDS011;21130;51.728;8.748;2023-04-07T09:40:25;5.43;;;4.93;;
34924;SDS011;21130;51.728;8.748;2023-04-07T09:42:52;4.68;;;4.22;;
34924;SDS011;21130;51.728;8.748;2023-04-07T09:45:24;4.97;;;4.57;;
34924;SDS011;21130;51.728;8.748;2023-04-07T09:47:51;4.70;;;4.30;;
34924;SDS011;21130;51.728;8.748;2023-04-07T09:50:29;4.20;;;3.90;;
34924;SDS011;21130;51.728;8.748;2023-04-07T09:52:56;4.13;;;3.72;;
34924;SDS011;21130;51.728;8.748;2023-04-07T09:55:23;4.60;;;4.20;;
34924;SDS011;21130;51.728;8.748;2023-04-07T09:57:49;4.13;;;3.60;;
34924;SDS011;21130;51.728;8.748;2023-04-07T10:00:16;4.78;;;4.38;;
34924;SDS011;21130;51.728;8.748;2023-04-07T10:02:44;3.95;;;3.53;;
34924;SDS011;21130;51.728;8.748;2023-04-07T10:05:12;4.50;;;4.10;;
34924;SDS011;21130;51.728;8.748;2023-04-07T10:07:39;4.00;;;3.70;;
34924;SDS011;21130;51.728;8.748;2023-04-07T10:10:06;3.60;;;3.30;;
34924;SDS011;21130;51.728;8.748;2023-04-07T10:12:33;3.60;;;3.17;;
34924;SDS011;21130;51.728;8.748;2023-04-07T10:15:01;3.88;;;3.40;;
34924;SDS011;21130;51.728;8.748;2023-04-07T10:17:28;4.00;;;3.70;;
34924;SDS011;21130;51.728;8.748;2023-04-07T10:19:57;3.80;;;3.50;;
34924;SDS011;21130;51.728;8.748;2023-04-07T10:22:26;3.80;;;3.50;;
34924;SDS011;21130;51.728;8.748;2023-04-07T10:24:55;4.10;;;3.72;;
34924;SDS011;21130;51.728;8.748;2023-04-07T10:27:26;3.70;;;3.40;;
34924;SDS011;21130;51.728;8.748;2023-04-07T10:29:56;3.58;;;3.28;;
34924;SDS011;21130;51.728;8.748;2023-04-07T10:32:24;3.17;;;2.88;;
34924;SDS011;21130;51.728;8.748;2023-04-07T10:34:55;3.03;;;2.83;;
34924;SDS011;21130;51.728;8.748;2023-04-07T10:37:24;2.70;;;2.50;;
34924;SDS011;21130;51.728;8.748;2023-04-07T10:42:54;2.83;;;2.63;;
34924;SDS011;21130;51.728;8.748;2023-04-07T10:48:18;3.60;;;3.30;;
34924;SDS011;21130;51.728;8.748;2023-04-07T10:50:45;2.88;;;2.67;;
34924;SDS011;21130;51.728;8.748;2023-04-07T10:57:03;3.05;;;2.85;;
34924;SDS011;21130;51.728;8.748;2023-04-07T10:59:32;2.97;;;2.70;;
34924;SDS011;21130;51.728;8.748;2023-04-07T11:04:59;3.20;;;3.00;;
34924;SDS011;21130;51.728;8.748;2023-04-07T11:07:47;3.55;;;3.25;;
34924;SDS011;21130;51.728;8.748;2023-04-07T11:10:15;3.10;;;2.90;;
34924;SDS011;21130;51.728;8.748;2023-04-07T11:12:43;3.10;;;2.90;;
34924;SDS011;21130;51.728;8.748;2023-04-07T11:15:16;2.95;;;2.75;;
34924;SDS011;21130;51.728;8.748;2023-04-07T11:17:44;2.95;;;2.63;;
34924;SDS011;21130;51.728;8.748;2023-04-07T11:20:10;2.90;;;2.70;;
34924;SDS011;21130;51.728;8.748;2023-04-07T11:22:37;2.95;;;2.75;;
34924;SDS011;21130;51.728;8.748;2023-04-07T11:25:05;4.50;;;2.90;;
34924;SDS011;21130;51.728;8.748;2023-04-07T11:27:47;3.20;;;2.97;;
34924;SDS011;21130;51.728;8.748;2023-04-07T11:30:14;3.35;;;3.15;;
34924;SDS011;21130;51.728;8.748;2023-04-07T11:32:46;3.40;;;3.10;;
34924;SDS011;21130;51.728;8.748;2023-04-07T11:35:14;3.60;;;3.30;;
34924;SDS011;21130;51.728;8.748;2023-04-07T11:37:40;4.15;;;3.60;;
34924;SDS011;21130;51.728;8.748;2023-04-07T11:40:09;3.80;;;3.50;;
34924;SDS011;21130;51.728;8.748;2023-04-07T11:42:37;5.05;;;4.65;;
34924;SDS011;21130;51.728;8.748;2023-04-07T11:45:05;4.50;;;3.90;;
34924;SDS011;21130;51.728;8.748;2023-04-07T11:47:40;4.53;;;4.13;;
34924;SDS011;21130;51.728;8.748;2023-04-07T11:50:07;4.50;;;4.10;;
34924;SDS011;21130;51.728;8.748;2023-04-07T11:52:39;4.60;;;3.95;;
34924;SDS011;21130;51.728;8.748;2023-04-07T11:55:16;4.72;;;3.97;;
34924;SDS011;21130;51.728;8.748;2023-04-07T12:02:53;6.00;;;5.50;;
34924;SDS011;21130;51.728;8.748;2023-04-07T12:05:20;5.22;;;4.82;;
34924;SDS011;21130;51.728;8.748;2023-04-07T12:07:51;5.28;;;4.88;;
34924;SDS011;21130;51.728;8.748;2023-04-07T12:10:21;5.55;;;5.10;;
34924;SDS011;21130;51.728;8.748;2023-04-07T12:12:50;5.50;;;5.00;;
34924;SDS011;21130;51.728;8.748;2023-04-07T12:15:17;5.30;;;4.80;;
34924;SDS011;21130;51.728;8.748;2023-04-07T12:17:45;5.75;;;5.25;;
34924;SDS011;21130;51.728;8.748;2023-04-07T12:20:13;5.47;;;5.03;;
34924;SDS011;21130;51.728;8.748;2023-04-07T12:22:40;6.43;;;5.82;;
34924;SDS011;21130;51.728;8.748;2023-04-07T12:25:08;6.82;;;6.22;;
34924;SDS011;21130;51.728;8.748;2023-04-07T12:27:37;5.97;;;5.38;;
34924;SDS011;21130;51.728;8.748;2023-04-07T12:30:04;6.57;;;5.90;;
34924;SDS011;21130;51.728;8.748;2023-04-07T12:32:31;6.60;;;5.82;;
34924;SDS011;21130;51.728;8.748;2023-04-07T12:34:58;7.03;;;6.35;;
34924;SDS011;21130;51.728;8.748;2023-04-07T12:37:24;7.50;;;6.70;;
34924;SDS011;21130;51.728;8.748;2023-04-07T12:39:51;7.15;;;6.53;;
34924;SDS011;21130;51.728;8.748;2023-04-07T12:42:20;6.88;;;6.20;;
34924;SDS011;21130;51.728;8.748;2023-04-07T12:44:48;7.72;;;6.90;;
34924;SDS011;21130;51.728;8.748;2023-04-07T12:47:15;7.25;;;6.63;;
34924;SDS011;21130;51.728;8.748;2023-04-07T12:49:42;5.28;;;4.88;;
34924;SDS011;21130;51.728;8.748;2023-04-07T12:52:08;5.38;;;4.97;;
34924;SDS011;21130;51.728;8.748;2023-04-07T12:54:36;5.40;;;4.90;;
34924;SDS011;21130;51.728;8.748;2023-04-07T12:57:02;5.13;;;4.70;;
34924;SDS011;21130;51.728;8.748;2023-04-07T12:59:29;5.57;;;5.07;;
34924;SDS011;21130;51.728;8.748;2023-04-07T13:01:56;5.30;;;4.90;;
34924;SDS011;21130;51.728;8.748;2023-04-07T13:04:23;6.75;;;5.47;;
34924;SDS011;21130;51.728;8.748;2023-04-07T13:06:50;5.95;;;5.30;;
34924;SDS011;21130;51.728;8.748;2023-04-07T13:09:17;6.35;;;5.75;;
34924;SDS011;21130;51.728;8.748;2023-04-07T13:11:43;6.63;;;6.03;;
34924;SDS011;21130;51.728;8.748;2023-04-07T13:14:10;5.78;;;5.28;;
34924;SDS011;21130;51.728;8.748;2023-04-07T13:16:37;5.95;;;5.45;;
34924;SDS011;21130;51.728;8.748;2023-04-07T13:19:04;5.65;;;5.15;;
34924;SDS011;21130;51.728;8.748;2023-04-07T13:21:33;5.60;;;5.10;;
34924;SDS011;21130;51.728;8.748;2023-04-07T13:23:59;6.18;;;5.57;;
34924;SDS011;21130;51.728;8.748;2023-04-07T13:26:26;8.40;;;7.60;;
34924;SDS011;21130;51.728;8.748;2023-04-07T13:28:53;7.95;;;7.25;;
34924;SDS011;21130;51.728;8.748;2023-04-07T13:31:19;7.93;;;7.22;;
34924;SDS011;21130;51.728;8.748;2023-04-07T13:33:47;7.38;;;6.65;;
34924;SDS011;21130;51.728;8.748;2023-04-07T13:36:15;6.40;;;5.80;;
34924;SDS011;21130;51.728;8.748;2023-04-07T13:38:41;6.60;;;6.00;;
34924;SDS011;21130;51.728;8.748;2023-04-07T13:41:08;7.68;;;7.00;;
34924;SDS011;21130;51.728;8.748;2023-04-07T13:43:34;6.38;;;5.88;;
34924;SDS011;21130;51.728;8.748;2023-04-07T13:46:01;7.18;;;6.53;;
34924;SDS011;21130;51.728;8.748;2023-04-07T13:48:27;6.53;;;6.00;;
34924;SDS011;21130;51.728;8.748;2023-04-07T13:50:55;6.60;;;6.10;;
34924;SDS011;21130;51.728;8.748;2023-04-07T13:53:23;7.53;;;6.90;;
34924;SDS011;21130;51.728;8.748;2023-04-07T13:55:50;8.20;;;7.50;;
34924;SDS011;21130;51.728;8.748;2023-04-07T13:58:17;7.00;;;6.30;;
34924;SDS011;21130;51.728;8.748;2023-04-07T14:00:44;7.03;;;6.43;;
34924;SDS011;21130;51.728;8.748;2023-04-07T14:03:10;6.55;;;5.95;;
34924;SDS011;21130;51.728;8.748;2023-04-07T14:05:37;7.00;;;6.40;;
34924;SDS011;21130;51.728;8.748;2023-04-07T14:08:03;8.10;;;7.10;;
34924;SDS011;21130;51.728;8.748;2023-04-07T14:10:31;7.90;;;7.20;;
34924;SDS011;21130;51.728;8.748;2023-04-07T14:12:58;7.97;;;7.28;;
34924;SDS011;21130;51.728;8.748;2023-04-07T14:15:25;8.10;;;7.32;;
34924;SDS011;21130;51.728;8.748;2023-04-07T14:17:51;8.13;;;7.38;;
34924;SDS011;21130;51.728;8.748;2023-04-07T14:20:18;8.43;;;7.65;;
34924;SDS011;21130;51.728;8.748;2023-04-07T14:22:45;7.65;;;6.95;;
34924;SDS011;21130;51.728;8.748;2023-04-07T14:25:11;7.50;;;6.90;;
34924;SDS011;21130;51.728;8.748;2023-04-07T14:27:40;8.75;;;7.63;;
34924;SDS011;21130;51.728;8.748;2023-04-07T14:30:12;7.38;;;6.68;;
34924;SDS011;21130;51.728;8.748;2023-04-07T14:32:45;9.13;;;8.23;;
34924;SDS011;21130;51.728;8.748;2023-04-07T14:35:15;8.20;;;7.50;;
34924;SDS011;21130;51.728;8.748;2023-04-07T14:37:41;7.53;;;6.88;;
34924;SDS011;21130;51.728;8.748;2023-04-07T14:40:10;7.03;;;6.43;;
34924;SDS011;21130;51.728;8.748;2023-04-07T14:42:37;6.65;;;6.05;;
34924;SDS011;21130;51.728;8.748;2023-04-07T14:45:07;6.72;;;6.07;;
34924;SDS011;21130;51.728;8.748;2023-04-07T14:47:34;6.38;;;5.78;;
34924;SDS011;21130;51.728;8.748;2023-04-07T14:50:00;6.05;;;5.47;;
34924;SDS011;21130;51.728;8.748;2023-04-07T14:52:26;7.28;;;6.20;;
34924;SDS011;21130;51.728;8.748;2023-04-07T14:54:53;6.93;;;6.22;;
34924;SDS011;21130;51.728;8.748;2023-04-07T14:57:19;6.78;;;6.18;;
34924;SDS011;21130;51.728;8.748;2023-04-07T14:59:46;6.70;;;6.10;;
34924;SDS011;21130;51.728;8.748;2023-04-07T15:02:14;6.88;;;6.15;;
34924;SDS011;21130;51.728;8.748;2023-04-07T15:04:40;6.20;;;5.60;;
34924;SDS011;21130;51.728;8.748;2023-04-07T15:07:07;6.72;;;6.13;;
34924;SDS011;21130;51.728;8.748;2023-04-07T15:09:33;6.15;;;5.45;;
34924;SDS011;21130;51.728;8.748;2023-04-07T15:12:00;7.72;;;6.60;;